Kingshill, Virgin Islands
Current Conditions -  °F | °C
As of 11:00 AM on Thursday 18 Dec 2014 (Local Time) from TUPJ Reporting Station
Broken Clouds Broken Clouds  
Wind Chill: 81°   Ceiling: 4500
Heat Index: 84°   Visibility: 6mi
Dew Point: 70°   Wind: 7mph
Humidity: 70%   Direction: 60°ENE
Pressure: 30.03"   Gusts: NA
Location:  17.72°N, 64.78°W
Report Text: TUPJ 181500Z 06006KT 9999 SCT019 BKN045 27/21 Q1017
Loading
Personal Weather Stations






























Interactive Weather Map New forecast layout! Learn more

10-Day Weather Forecast

Advertisements
Track Severe Weather on mobile